Willard, Colorado
Current Conditions -  °F | °C
As of 6:30 PM on Thursday 27 Nov 2014 (Local Time) from KSTK Reporting Station
Clear Clear  
Wind Chill:   Ceiling: Unl
Heat Index:   Visibility: 10mi
Dew Point:   Wind: 7mph
Humidity: 81%   Direction: 230°SW
Pressure: 30.04"   Gusts: NA
Location:  40.5426°N, 103.449°W
Report Text: KSTK 280130Z AUTO 23006KT 10SM CLR 03/00 A3004 RMK AO2
Loading
Personal Weather Stations






























Interactive Weather Map New forecast layout! Learn more

10-Day Weather Forecast

Advertisements
Track Severe Weather on mobile